createdAt,value
2022-08-19T00:04:37.480Z,18.55
2022-08-19T00:09:39.383Z,18.55
2022-08-19T00:14:41.864Z,18.52
2022-08-19T00:19:43.588Z,18.56
2022-08-19T00:24:50.882Z,18.52
2022-08-19T00:29:52.986Z,18.47
2022-08-19T00:34:54.716Z,18.45
2022-08-19T00:39:56.946Z,18.43
2022-08-19T00:44:58.821Z,18.52
2022-08-19T00:50:00.753Z,18.44
2022-08-19T00:55:03.486Z,18.46
2022-08-19T01:00:12.288Z,18.49
2022-08-19T01:05:21.789Z,18.46
2022-08-19T01:10:27.713Z,18.61
2022-08-19T01:15:36.333Z,18.54
2022-08-19T01:20:38.304Z,18.61
2022-08-19T01:25:53.159Z,18.65
2022-08-19T01:30:56.694Z,18.55
2022-08-19T01:36:29.878Z,18.56
2022-08-19T01:41:31.666Z,18.54
2022-08-19T01:46:34.061Z,18.47
2022-08-19T01:51:39.889Z,18.44
2022-08-19T01:56:42.016Z,18.44
2022-08-19T02:01:44.163Z,18.57
2022-08-19T02:06:45.835Z,18.56
2022-08-19T02:11:47.508Z,18.55
2022-08-19T02:16:49.166Z,18.54
2022-08-19T02:21:50.826Z,18.60
2022-08-19T02:26:52.674Z,18.64
2022-08-19T02:31:54.561Z,18.66
2022-08-19T02:36:57.328Z,18.60
2022-08-19T02:42:00.575Z,18.50
2022-08-19T02:47:02.199Z,18.61
2022-08-19T02:52:04.272Z,18.62
2022-08-19T02:57:07.174Z,18.60
2022-08-19T03:02:08.795Z,18.56
2022-08-19T03:07:14.587Z,18.65
2022-08-19T03:12:16.275Z,18.66
2022-08-19T03:17:17.954Z,18.63
2022-08-19T03:22:19.624Z,18.71
2022-08-19T03:27:22.501Z,18.70
2022-08-19T03:32:32.449Z,18.64
2022-08-19T03:37:34.871Z,18.60
2022-08-19T03:42:48.850Z,18.59
2022-08-19T03:47:51.381Z,18.69
2022-08-19T03:52:53.676Z,18.71
2022-08-19T03:57:59.083Z,18.66
2022-08-19T04:03:02.004Z,18.56
2022-08-19T04:08:09.604Z,18.55
2022-08-19T04:13:14.833Z,18.49
2022-08-19T04:18:16.740Z,18.44
2022-08-19T04:23:19.829Z,18.44
2022-08-19T04:28:24.063Z,18.39
2022-08-19T04:33:28.586Z,18.36
2022-08-19T04:38:30.623Z,18.36
2022-08-19T04:43:33.479Z,18.32
2022-08-19T04:48:36.313Z,18.27
2022-08-19T04:53:45.313Z,18.36
2022-08-19T04:58:48.035Z,18.41
2022-08-19T05:03:50.683Z,18.41
2022-08-19T05:08:52.957Z,18.37
2022-08-19T05:13:56.064Z,18.41
2022-08-19T05:19:16.375Z,18.42
2022-08-19T05:24:20.980Z,18.48
2022-08-19T05:29:23.206Z,18.48
2022-08-19T05:34:27.081Z,18.48
2022-08-19T05:39:31.033Z,18.49
2022-08-19T05:44:34.544Z,18.46
2022-08-19T05:49:37.526Z,18.45
2022-08-19T05:54:42.491Z,18.38
2022-08-19T05:59:46.886Z,18.40
2022-08-19T06:04:48.756Z,18.37
2022-08-19T06:10:00.019Z,18.39
2022-08-19T06:15:12.765Z,18.35
2022-08-19T06:20:16.278Z,18.37
2022-08-19T06:25:18.562Z,18.39
2022-08-19T06:30:21.415Z,18.40
2022-08-19T06:35:23.375Z,18.42
2022-08-19T06:40:25.328Z,18.49
2022-08-19T06:45:35.524Z,18.60
2022-08-19T06:50:39.466Z,18.59
2022-08-19T06:55:42.852Z,18.62
2022-08-19T07:00:44.786Z,18.71
2022-08-19T07:05:47.247Z,18.71
2022-08-19T07:10:50.144Z,18.78
2022-08-19T07:15:52.010Z,18.89
2022-08-19T07:21:06.909Z,18.97
2022-08-19T07:26:15.843Z,18.97
2022-08-19T07:31:23.791Z,18.94
2022-08-19T07:36:32.193Z,18.90
2022-08-19T07:41:35.486Z,18.90
2022-08-19T07:46:41.103Z,18.88
2022-08-19T07:51:42.924Z,18.77
2022-08-19T07:56:44.741Z,18.73
2022-08-19T08:01:46.763Z,18.70
2022-08-19T08:07:07.217Z,18.75
2022-08-19T08:17:49.781Z,18.98
2022-08-19T08:23:11.873Z,19.09
2022-08-19T08:28:17.661Z,19.17
2022-08-19T08:33:34.389Z,19.19
2022-08-19T08:38:41.812Z,19.00
2022-08-19T08:43:47.434Z,18.97
2022-08-19T08:48:55.056Z,18.85
2022-08-19T08:53:57.279Z,18.82
2022-08-19T08:59:09.457Z,18.89
2022-08-19T09:04:14.326Z,18.93
2022-08-19T09:09:33.628Z,19.22
2022-08-19T09:14:51.585Z,19.35
2022-08-19T09:20:09.105Z,19.39
2022-08-19T09:25:15.050Z,19.81
2022-08-19T09:30:28.755Z,20.96
2022-08-19T09:35:49.763Z,21.70
2022-08-19T09:40:55.622Z,22.20
2022-08-19T09:45:58.111Z,21.85
2022-08-19T09:51:09.101Z,21.01
2022-08-19T09:56:14.499Z,20.72
2022-08-19T10:01:22.248Z,20.44
2022-08-19T10:06:41.978Z,20.27
2022-08-19T10:11:54.625Z,20.11
2022-08-19T10:16:59.239Z,19.93
2022-08-19T10:22:04.406Z,19.72
2022-08-19T10:27:06.975Z,20.02
2022-08-19T10:32:11.109Z,20.67
2022-08-19T10:37:14.350Z,20.99
2022-08-19T10:42:19.565Z,21.17
2022-08-19T10:47:24.949Z,20.67
2022-08-19T10:52:38.758Z,19.87
2022-08-19T10:58:01.241Z,19.43
2022-08-19T11:03:04.094Z,19.64
2022-08-19T11:08:22.506Z,20.43
2022-08-19T11:13:25.713Z,21.02
2022-08-19T11:18:27.557Z,21.03
2022-08-19T11:23:29.357Z,20.68
2022-08-19T11:28:31.295Z,20.25
2022-08-19T11:33:33.817Z,19.79
2022-08-19T11:38:37.041Z,19.66
2022-08-19T11:43:40.650Z,19.54
2022-08-19T11:48:43.608Z,19.42
2022-08-19T11:53:46.839Z,19.47
2022-08-19T11:58:49.545Z,19.43
2022-08-19T12:03:53.371Z,19.50
2022-08-19T12:08:57.467Z,19.46
2022-08-19T12:14:00.023Z,19.36
2022-08-19T12:19:05.256Z,19.31
2022-08-19T12:24:10.157Z,19.21
2022-08-19T12:29:12.014Z,19.15
2022-08-19T12:34:13.907Z,19.23
2022-08-19T12:39:15.728Z,19.00
2022-08-19T12:44:17.957Z,19.03
2022-08-19T12:49:31.436Z,19.00
2022-08-19T12:54:47.276Z,19.18
2022-08-19T12:59:54.629Z,19.34
2022-08-19T13:04:56.609Z,19.34
2022-08-19T13:09:58.537Z,19.56
2022-08-19T13:15:00.828Z,19.54
2022-08-19T13:20:03.616Z,19.41
2022-08-19T13:25:07.487Z,19.49
2022-08-19T13:30:30.358Z,19.34
2022-08-19T13:35:32.231Z,19.43
2022-08-19T13:40:34.672Z,19.60
2022-08-19T13:45:38.743Z,19.85
2022-08-19T13:50:47.777Z,20.22
2022-08-19T13:55:51.492Z,20.52
2022-08-19T14:00:53.572Z,20.41
2022-08-19T14:05:55.559Z,20.20
2022-08-19T14:10:57.426Z,20.22
2022-08-19T14:15:59.272Z,20.22
2022-08-19T14:21:01.732Z,20.37
2022-08-19T14:26:13.424Z,20.19
2022-08-19T14:31:19.959Z,20.17
2022-08-19T14:36:22.797Z,20.12
2022-08-19T14:41:24.869Z,20.27
2022-08-19T14:46:29.524Z,20.63
2022-08-19T14:51:32.493Z,20.72
2022-08-19T14:56:34.336Z,20.76
2022-08-19T15:01:36.278Z,20.67
2022-08-19T15:06:38.642Z,20.58
2022-08-19T15:11:40.445Z,20.48
2022-08-19T15:16:42.933Z,20.16
2022-08-19T15:21:44.880Z,20.02
2022-08-19T15:26:46.748Z,19.91
2022-08-19T15:31:48.625Z,19.82
2022-08-19T15:36:52.258Z,19.70
2022-08-19T15:41:54.110Z,19.61
2022-08-19T15:46:58.569Z,19.47
2022-08-19T15:52:02.014Z,19.42
2022-08-19T15:57:22.221Z,19.47
2022-08-19T16:02:46.249Z,19.55
2022-08-19T16:07:49.034Z,19.45
2022-08-19T16:12:51.073Z,19.46
2022-08-19T16:17:57.220Z,19.32
2022-08-19T16:23:00.077Z,19.14
2022-08-19T16:28:07.680Z,19.13
2022-08-19T16:33:10.315Z,19.18
2022-08-19T16:38:14.612Z,19.25
2022-08-19T16:43:16.445Z,19.21
2022-08-19T16:48:22.569Z,19.20
2022-08-19T16:53:29.093Z,19.25
2022-08-19T16:58:34.289Z,19.20
2022-08-19T17:03:37.681Z,19.20
2022-08-19T17:08:39.828Z,19.23
2022-08-19T17:13:41.749Z,19.17
2022-08-19T17:18:45.651Z,19.07
2022-08-19T17:23:47.531Z,19.05
2022-08-19T17:28:51.923Z,18.91
2022-08-19T17:33:55.005Z,18.79
2022-08-19T17:39:00.436Z,18.84
2022-08-19T17:44:03.850Z,18.75
2022-08-19T17:49:06.744Z,18.71
2022-08-19T17:54:12.046Z,18.62
2022-08-19T17:59:15.035Z,18.49
2022-08-19T18:04:18.789Z,18.57
2022-08-19T18:09:30.068Z,18.40
2022-08-19T18:14:44.216Z,18.33
2022-08-19T18:19:47.786Z,18.32
2022-08-19T18:24:49.930Z,18.34
2022-08-19T18:29:51.811Z,18.20
2022-08-19T18:34:54.621Z,18.14
2022-08-19T18:40:16.092Z,18.14
2022-08-19T18:45:36.635Z,18.13
2022-08-19T18:50:42.893Z,18.15
2022-08-19T18:55:47.522Z,18.08
2022-08-19T19:00:49.725Z,18.04
2022-08-19T19:05:52.844Z,18.05
2022-08-19T19:10:56.584Z,18.04
2022-08-19T19:16:01.218Z,17.96
2022-08-19T19:21:03.150Z,17.94
2022-08-19T19:26:05.118Z,17.93
2022-08-19T19:31:06.993Z,17.95
2022-08-19T19:36:08.954Z,17.97
2022-08-19T19:41:11.627Z,17.97
2022-08-19T19:46:16.507Z,17.97
2022-08-19T19:51:19.936Z,18.00
2022-08-19T19:56:22.810Z,17.96
2022-08-19T20:01:27.186Z,17.93
2022-08-19T20:06:29.551Z,17.91
2022-08-19T20:11:33.355Z,17.90
2022-08-19T20:16:35.314Z,17.86
2022-08-19T20:21:43.889Z,17.70
2022-08-19T20:26:47.526Z,17.54
2022-08-19T20:31:57.809Z,17.38
2022-08-19T20:37:01.429Z,17.28
2022-08-19T20:42:03.497Z,17.24
2022-08-19T20:47:05.624Z,17.35
2022-08-19T20:52:07.618Z,17.77
2022-08-19T20:57:09.535Z,17.85
2022-08-19T21:02:11.583Z,17.86
2022-08-19T21:07:13.527Z,17.73
2022-08-19T21:12:15.859Z,17.73
2022-08-19T21:17:18.456Z,17.74
2022-08-19T21:22:20.380Z,17.77
2022-08-19T21:27:22.246Z,17.82
2022-08-19T21:32:27.111Z,17.86
2022-08-19T21:37:29.576Z,17.80
2022-08-19T21:42:31.423Z,17.80
2022-08-19T21:47:33.298Z,17.85
2022-08-19T21:52:35.145Z,17.81
2022-08-19T21:57:37.040Z,17.71
2022-08-19T22:02:38.907Z,17.72
2022-08-19T22:07:42.882Z,17.86
2022-08-19T22:12:47.320Z,17.91
2022-08-19T22:17:54.465Z,17.98
2022-08-19T22:23:00.847Z,17.84
2022-08-19T22:28:05.242Z,17.86
2022-08-19T22:33:11.698Z,17.99
2022-08-19T22:38:14.488Z,18.00
2022-08-19T22:43:23.021Z,17.96
2022-08-19T22:48:27.990Z,18.00
2022-08-19T22:53:29.853Z,17.92
2022-08-19T22:58:31.990Z,17.90
2022-08-19T23:03:35.174Z,17.80
2022-08-19T23:08:39.840Z,17.85
2022-08-19T23:13:42.313Z,17.81
2022-08-19T23:18:45.456Z,17.84
2022-08-19T23:23:47.884Z,17.80
2022-08-19T23:29:08.131Z,17.79
2022-08-19T23:34:10.052Z,17.83
2022-08-19T23:39:11.896Z,17.85
2022-08-19T23:44:14.866Z,17.82
2022-08-19T23:49:17.262Z,17.79
2022-08-19T23:54:19.106Z,17.73
2022-08-19T23:59:21.258Z,17.68
